createdAt,value
2022-10-18T00:00:36.030Z,21.90
2022-10-18T00:01:36.022Z,24.50
2022-10-18T00:02:36.148Z,22.00
2022-10-18T00:03:36.013Z,23.40
2022-10-18T00:04:35.966Z,22.00
2022-10-18T00:05:35.950Z,21.10
2022-10-18T00:06:38.632Z,21.10
2022-10-18T00:07:35.919Z,24.10
2022-10-18T00:08:35.902Z,22.60
2022-10-18T00:09:35.889Z,23.30
2022-10-18T00:10:35.873Z,20.50
2022-10-18T00:11:35.855Z,22.90
2022-10-18T00:12:35.931Z,23.90
2022-10-18T00:13:35.818Z,22.00
2022-10-18T00:14:35.804Z,21.30
2022-10-18T00:15:35.790Z,21.40
2022-10-18T00:16:35.769Z,20.90
2022-10-18T00:17:35.759Z,22.00
2022-10-18T00:18:35.758Z,20.70
2022-10-18T00:19:35.722Z,25.20
2022-10-18T00:20:35.707Z,21.60
2022-10-18T00:21:35.727Z,22.70
2022-10-18T00:22:35.675Z,24.60
2022-10-18T00:23:35.663Z,21.20
2022-10-18T00:24:35.637Z,22.50
2022-10-18T00:25:35.626Z,20.60
2022-10-18T00:26:35.609Z,21.30
2022-10-18T00:27:35.592Z,23.40
2022-10-18T00:28:35.602Z,26.10
2022-10-18T00:29:35.572Z,22.60
2022-10-18T00:30:35.552Z,21.00
2022-10-18T00:31:35.527Z,24.60
2022-10-18T00:32:35.509Z,23.30
2022-10-18T00:33:35.497Z,21.50
2022-10-18T00:34:35.503Z,20.70
2022-10-18T00:35:35.460Z,20.00
2022-10-18T00:36:35.447Z,21.70
2022-10-18T00:37:35.427Z,24.60
2022-10-18T00:38:35.414Z,24.80
2022-10-18T00:39:35.397Z,24.00
2022-10-18T00:40:35.376Z,21.70
2022-10-18T00:41:35.361Z,21.00
2022-10-18T00:42:35.345Z,22.70
2022-10-18T00:43:35.331Z,21.70
2022-10-18T00:44:35.315Z,21.40
2022-10-18T00:45:35.297Z,23.10
2022-10-18T00:46:35.279Z,21.30
2022-10-18T00:47:35.264Z,21.30
2022-10-18T00:48:35.246Z,19.50
2022-10-18T00:49:35.229Z,20.20
2022-10-18T00:50:35.230Z,20.50
2022-10-18T00:51:35.196Z,19.40
2022-10-18T00:52:35.181Z,21.60
2022-10-18T00:53:35.165Z,20.60
2022-10-18T00:54:35.154Z,20.70
2022-10-18T00:55:35.125Z,24.10
2022-10-18T00:56:35.115Z,24.20
2022-10-18T00:57:35.099Z,20.60
2022-10-18T00:58:35.078Z,21.40
2022-10-18T00:59:35.061Z,20.00
2022-10-18T01:00:35.052Z,21.50
2022-10-18T01:01:35.078Z,19.40
2022-10-18T01:02:35.014Z,21.40
2022-10-18T01:03:34.997Z,19.50
2022-10-18T01:04:34.984Z,18.90
2022-10-18T01:05:34.967Z,23.80
2022-10-18T01:06:34.971Z,20.10
2022-10-18T01:07:34.941Z,19.40
2022-10-18T01:08:34.917Z,21.60
2022-10-18T01:09:34.899Z,20.00
2022-10-18T01:10:34.884Z,22.50
2022-10-18T01:11:34.867Z,22.00
2022-10-18T01:12:34.852Z,22.70
2022-10-18T01:13:34.839Z,21.30
2022-10-18T01:14:34.816Z,20.10
2022-10-18T01:15:34.799Z,20.20
2022-10-18T01:16:34.788Z,22.10
2022-10-18T01:17:34.798Z,21.20
2022-10-18T01:18:34.751Z,21.60
2022-10-18T01:19:34.741Z,20.60
2022-10-18T01:20:34.720Z,22.10
2022-10-18T01:21:34.700Z,21.60
2022-10-18T01:22:34.707Z,20.60
2022-10-18T01:23:34.670Z,22.60
2022-10-18T01:24:34.656Z,25.40
2022-10-18T01:25:34.639Z,22.10
2022-10-18T01:26:34.623Z,23.80
2022-10-18T01:27:34.610Z,23.30
2022-10-18T01:28:34.667Z,21.70
2022-10-18T01:29:34.569Z,21.70
2022-10-18T01:30:34.559Z,22.60
2022-10-18T01:31:34.536Z,23.40
2022-10-18T01:32:34.519Z,20.80
2022-10-18T01:33:34.507Z,20.90
2022-10-18T01:34:34.490Z,22.30
2022-10-18T01:35:34.473Z,22.90
2022-10-18T01:36:34.459Z,24.20
2022-10-18T01:37:34.548Z,21.80
2022-10-18T01:38:34.442Z,23.40
2022-10-18T01:39:34.406Z,22.80
2022-10-18T01:40:34.389Z,22.00
2022-10-18T01:41:34.399Z,21.50
2022-10-18T01:42:34.355Z,24.00
2022-10-18T01:43:34.337Z,20.70
2022-10-18T01:44:34.322Z,22.40
2022-10-18T01:45:34.303Z,22.10
2022-10-18T01:46:34.289Z,20.30
2022-10-18T01:47:34.485Z,22.20
2022-10-18T01:48:34.257Z,25.00
2022-10-18T01:49:34.237Z,21.10
2022-10-18T01:50:34.220Z,22.10
2022-10-18T01:51:34.204Z,22.80
2022-10-18T01:52:34.273Z,20.50
2022-10-18T01:53:34.171Z,23.70
2022-10-18T01:54:34.181Z,26.40
2022-10-18T01:55:34.146Z,20.80
2022-10-18T01:56:34.125Z,21.00
2022-10-18T01:57:34.105Z,21.80
2022-10-18T01:58:34.091Z,23.30
2022-10-18T01:59:34.070Z,21.10
2022-10-18T02:00:34.081Z,22.40
2022-10-18T02:01:34.044Z,24.90
2022-10-18T02:02:34.365Z,26.30
2022-10-18T02:03:34.012Z,24.10
2022-10-18T02:04:33.992Z,20.70
2022-10-18T02:05:33.975Z,23.70
2022-10-18T02:06:33.964Z,21.00
2022-10-18T02:07:33.940Z,21.40
2022-10-18T02:08:33.928Z,25.60
2022-10-18T02:09:33.906Z,21.90
2022-10-18T02:10:33.917Z,24.10
2022-10-18T02:11:33.871Z,23.50
2022-10-18T02:12:34.066Z,22.50
2022-10-18T02:13:33.839Z,21.80
2022-10-18T02:14:33.829Z,22.90
2022-10-18T02:15:33.808Z,20.90
2022-10-18T02:16:33.791Z,21.10
2022-10-18T02:17:33.775Z,19.30
2022-10-18T02:18:33.762Z,22.70
2022-10-18T02:19:33.743Z,22.90
2022-10-18T02:20:33.728Z,23.40
2022-10-18T02:21:33.706Z,23.50
2022-10-18T02:22:33.942Z,22.90
2022-10-18T02:23:33.676Z,20.40
2022-10-18T02:24:33.660Z,20.90
2022-10-18T02:25:33.641Z,21.00
2022-10-18T02:26:33.647Z,20.50
2022-10-18T02:27:33.606Z,21.60
2022-10-18T02:28:33.592Z,22.20
2022-10-18T02:29:33.572Z,19.30
2022-10-18T02:30:33.561Z,21.90
2022-10-18T02:31:33.541Z,19.90
2022-10-18T02:32:33.899Z,21.50
2022-10-18T02:33:33.509Z,21.60
2022-10-18T02:34:33.493Z,21.00
2022-10-18T02:35:33.477Z,23.10
2022-10-18T02:36:33.465Z,21.30
2022-10-18T02:37:33.444Z,21.20
2022-10-18T02:38:33.429Z,21.00
2022-10-18T02:39:33.429Z,21.90
2022-10-18T02:40:33.393Z,24.90
2022-10-18T02:41:33.382Z,21.90
2022-10-18T02:42:33.632Z,24.50
2022-10-18T02:43:33.343Z,21.90
2022-10-18T02:44:33.328Z,21.70
2022-10-18T02:45:33.313Z,22.80
2022-10-18T02:46:33.302Z,20.40
2022-10-18T02:47:33.544Z,22.80
2022-10-18T02:48:33.262Z,20.90
2022-10-18T02:49:33.243Z,22.70
2022-10-18T02:50:33.228Z,20.70
2022-10-18T02:51:33.213Z,22.10
2022-10-18T02:52:33.194Z,21.50
2022-10-18T02:53:33.175Z,20.90
2022-10-18T02:54:33.161Z,21.80
2022-10-18T02:55:33.148Z,19.80
2022-10-18T02:56:33.132Z,21.50
2022-10-18T02:57:33.272Z,20.80
2022-10-18T02:58:33.161Z,19.20
2022-10-18T02:59:33.083Z,18.40
2022-10-18T03:00:33.063Z,21.10
2022-10-18T03:01:33.120Z,20.70
2022-10-18T03:02:33.031Z,22.90
2022-10-18T03:03:33.011Z,20.30
2022-10-18T03:04:32.998Z,22.60
2022-10-18T03:05:32.979Z,20.20
2022-10-18T03:06:32.960Z,23.30
2022-10-18T03:07:33.346Z,18.80
2022-10-18T03:08:32.932Z,18.60
2022-10-18T03:09:32.912Z,20.40
2022-10-18T03:10:32.895Z,19.60
2022-10-18T03:11:32.881Z,20.10
2022-10-18T03:12:32.864Z,20.70
2022-10-18T03:13:32.849Z,21.80
2022-10-18T03:14:32.858Z,20.50
2022-10-18T03:15:32.814Z,20.90
2022-10-18T03:16:32.795Z,20.10
2022-10-18T03:17:33.175Z,22.10
2022-10-18T03:18:32.765Z,21.90
2022-10-18T03:19:32.745Z,19.20
2022-10-18T03:20:32.732Z,22.40
2022-10-18T03:21:32.714Z,20.10
2022-10-18T03:22:32.703Z,18.50
2022-10-18T03:23:32.682Z,21.90
2022-10-18T03:24:32.669Z,18.40
2022-10-18T03:25:32.646Z,22.00
2022-10-18T03:26:32.638Z,22.00
2022-10-18T03:27:32.975Z,18.60
2022-10-18T03:28:32.682Z,19.20
2022-10-18T03:29:32.581Z,17.60
2022-10-18T03:30:32.584Z,18.40
2022-10-18T03:31:32.551Z,21.20
2022-10-18T03:32:32.820Z,18.60
2022-10-18T03:33:32.517Z,23.70
2022-10-18T03:34:32.502Z,19.80
2022-10-18T03:35:32.487Z,17.20
2022-10-18T03:36:32.464Z,18.10
2022-10-18T03:37:32.454Z,18.60
2022-10-18T03:38:32.437Z,17.90
2022-10-18T03:39:32.422Z,21.00
2022-10-18T03:40:32.405Z,20.50
2022-10-18T03:41:32.387Z,18.50
2022-10-18T03:42:32.637Z,20.70
2022-10-18T03:43:32.349Z,18.60
2022-10-18T03:44:32.335Z,18.60
2022-10-18T03:45:32.318Z,19.40
2022-10-18T03:46:32.328Z,24.00
2022-10-18T03:47:32.288Z,20.00
2022-10-18T03:48:32.267Z,20.20
2022-10-18T03:50:32.238Z,19.50
2022-10-18T03:51:32.227Z,18.50
2022-10-18T03:52:32.478Z,17.70
2022-10-18T03:53:32.190Z,23.00
2022-10-18T03:54:32.174Z,18.90
2022-10-18T03:55:32.156Z,17.80
2022-10-18T03:56:32.136Z,18.50
2022-10-18T03:57:32.116Z,18.60
2022-10-18T03:59:32.089Z,18.40
2022-10-18T04:00:32.072Z,18.00
2022-10-18T04:01:32.164Z,18.80
2022-10-18T04:02:32.409Z,21.80
2022-10-18T04:03:32.017Z,19.00
2022-10-18T04:04:32.004Z,18.20
2022-10-18T04:05:31.983Z,17.00
2022-10-18T04:06:31.968Z,19.30
2022-10-18T04:07:32.012Z,20.30
2022-10-18T04:08:31.933Z,19.80
2022-10-18T04:09:31.918Z,19.10
2022-10-18T04:10:31.902Z,18.40
2022-10-18T04:11:31.885Z,18.60
2022-10-18T04:12:32.162Z,18.70
2022-10-18T04:13:31.864Z,20.00
2022-10-18T04:14:31.838Z,18.80
2022-10-18T04:15:31.829Z,18.60
2022-10-18T04:16:31.833Z,20.10
2022-10-18T04:17:32.190Z,19.60
2022-10-18T04:18:31.790Z,19.50
2022-10-18T04:19:31.757Z,21.50
2022-10-18T04:20:31.736Z,17.80
2022-10-18T04:21:31.720Z,18.10
2022-10-18T04:22:31.701Z,22.80
2022-10-18T04:23:33.872Z,22.30
2022-10-18T04:24:31.671Z,22.00
2022-10-18T04:25:31.699Z,21.20
2022-10-18T04:26:31.645Z,20.60
2022-10-18T04:27:31.911Z,19.30
2022-10-18T04:28:31.637Z,21.90
2022-10-18T04:29:31.587Z,20.40
2022-10-18T04:30:31.566Z,21.00
2022-10-18T04:31:31.559Z,18.70
2022-10-18T04:32:31.534Z,21.40
2022-10-18T04:33:31.517Z,19.80
2022-10-18T04:34:31.659Z,20.90
2022-10-18T04:35:31.484Z,22.70
2022-10-18T04:36:31.472Z,21.60
2022-10-18T04:37:31.809Z,20.40
2022-10-18T04:38:31.434Z,23.00
2022-10-18T04:39:31.417Z,20.30
2022-10-18T04:40:31.398Z,19.00
2022-10-18T04:41:31.386Z,23.80
2022-10-18T04:42:31.374Z,21.60
2022-10-18T04:43:31.369Z,18.50
2022-10-18T04:44:31.334Z,20.60
2022-10-18T04:45:31.318Z,21.80
2022-10-18T04:46:31.299Z,20.40
2022-10-18T04:47:31.846Z,19.70
2022-10-18T04:48:31.268Z,21.60
2022-10-18T04:49:31.255Z,19.80
2022-10-18T04:50:31.363Z,22.20
2022-10-18T04:51:31.222Z,20.70
2022-10-18T04:52:31.197Z,19.20
2022-10-18T04:53:31.181Z,20.60
2022-10-18T04:54:31.170Z,19.70
2022-10-18T04:55:31.154Z,23.40
2022-10-18T04:56:31.133Z,21.60
2022-10-18T04:57:31.349Z,22.60
2022-10-18T04:58:31.097Z,19.30
2022-10-18T04:59:31.082Z,21.20
2022-10-18T05:00:31.064Z,22.60
2022-10-18T05:01:31.140Z,20.60
2022-10-18T05:02:31.426Z,21.00
2022-10-18T05:03:31.020Z,19.10
2022-10-18T05:04:30.996Z,21.70
2022-10-18T05:05:50.049Z,19.00
2022-10-18T05:06:30.992Z,19.90
2022-10-18T05:07:30.946Z,19.20
2022-10-18T05:08:30.932Z,20.40
2022-10-18T05:09:30.917Z,21.00
2022-10-18T05:10:30.897Z,23.00
2022-10-18T05:11:30.880Z,22.50
2022-10-18T05:12:31.135Z,19.50
2022-10-18T05:13:30.852Z,20.20
2022-10-18T05:14:30.835Z,20.20
2022-10-18T05:15:30.816Z,21.50
2022-10-18T05:16:30.798Z,22.20
2022-10-18T05:17:30.782Z,24.60
2022-10-18T05:18:30.765Z,23.40
2022-10-18T05:19:30.746Z,19.30
2022-10-18T05:20:30.734Z,22.80
2022-10-18T05:21:30.709Z,20.00
2022-10-18T05:22:31.139Z,21.50
2022-10-18T05:23:30.681Z,21.60
2022-10-18T05:24:30.661Z,18.30
2022-10-18T05:25:30.647Z,21.90
2022-10-18T05:26:30.629Z,23.50
2022-10-18T05:27:30.617Z,21.70
2022-10-18T05:28:45.909Z,21.50
2022-10-18T05:29:30.590Z,23.10
2022-10-18T05:30:30.561Z,22.50
2022-10-18T05:31:30.547Z,24.20
2022-10-18T05:32:30.938Z,22.40
2022-10-18T05:33:30.513Z,23.10
2022-10-18T05:34:30.495Z,24.20
2022-10-18T05:35:30.479Z,22.80
2022-10-18T05:36:30.464Z,20.30
2022-10-18T05:37:30.444Z,23.80
2022-10-18T05:38:30.540Z,21.50
2022-10-18T05:39:30.412Z,23.00
2022-10-18T05:40:30.394Z,23.40
2022-10-18T05:41:30.380Z,24.00
2022-10-18T05:42:30.677Z,22.20
2022-10-18T05:43:30.350Z,23.90
2022-10-18T05:44:30.329Z,22.60
2022-10-18T05:45:30.315Z,22.20
2022-10-18T05:46:30.295Z,24.00
2022-10-18T05:47:30.360Z,22.60
2022-10-18T05:48:30.270Z,25.60
2022-10-18T05:49:30.245Z,24.10
2022-10-18T05:50:30.229Z,22.40
2022-10-18T05:51:30.216Z,22.10
2022-10-18T05:52:30.501Z,25.80
2022-10-18T05:53:38.279Z,25.60
2022-10-18T05:54:30.186Z,23.90
2022-10-18T05:55:30.143Z,23.50
2022-10-18T05:56:30.180Z,26.20
2022-10-18T05:57:30.472Z,22.30
2022-10-18T05:58:30.091Z,22.90
2022-10-18T05:59:30.077Z,24.60
2022-10-18T06:00:30.061Z,24.90
2022-10-18T06:01:30.046Z,22.00
2022-10-18T06:02:30.085Z,23.60
2022-10-18T06:03:30.014Z,23.30
2022-10-18T06:04:29.989Z,23.60
2022-10-18T06:05:30.008Z,24.90
2022-10-18T06:06:29.962Z,25.50
2022-10-18T06:07:30.205Z,23.80
2022-10-18T06:08:29.931Z,24.60
2022-10-18T06:09:29.907Z,27.60
2022-10-18T06:10:29.913Z,25.80
2022-10-18T06:11:29.877Z,24.50
2022-10-18T06:12:29.861Z,25.60
2022-10-18T06:13:31.246Z,25.80
2022-10-18T06:14:29.829Z,26.40
2022-10-18T06:15:29.811Z,25.70
2022-10-18T06:16:32.373Z,24.90
2022-10-18T06:17:32.483Z,27.00
2022-10-18T06:18:29.798Z,27.90
2022-10-18T06:19:29.752Z,27.50
2022-10-18T06:20:29.722Z,29.40
2022-10-18T06:21:29.716Z,28.10
2022-10-18T06:22:29.694Z,32.00
2022-10-18T06:23:29.677Z,29.90
2022-10-18T06:24:29.660Z,31.10
2022-10-18T06:25:29.643Z,29.80
2022-10-18T06:26:29.652Z,30.70
2022-10-18T06:27:29.950Z,34.30
2022-10-18T06:28:29.662Z,32.40
2022-10-18T06:29:29.576Z,31.60
2022-10-18T06:30:29.567Z,33.20
2022-10-18T06:31:29.557Z,30.50
2022-10-18T06:32:29.524Z,32.90
2022-10-18T06:33:29.508Z,31.10
2022-10-18T06:34:29.490Z,33.00
2022-10-18T06:35:29.474Z,36.90
2022-10-18T06:36:29.462Z,38.10
2022-10-18T06:37:29.608Z,34.40
2022-10-18T06:38:29.424Z,33.90
2022-10-18T06:39:29.403Z,33.50
2022-10-18T06:40:29.387Z,35.90
2022-10-18T06:41:29.370Z,31.00
2022-10-18T06:42:29.491Z,33.90
2022-10-18T06:43:29.349Z,37.40
2022-10-18T06:44:29.324Z,34.50
2022-10-18T06:45:29.307Z,35.60
2022-10-18T06:46:29.290Z,31.00
2022-10-18T06:47:29.276Z,35.30
2022-10-18T06:48:29.264Z,31.90
2022-10-18T06:49:29.242Z,36.70
2022-10-18T06:50:29.222Z,34.90
2022-10-18T06:51:29.206Z,37.60
2022-10-18T06:52:29.417Z,35.80
2022-10-18T06:53:29.175Z,32.40
2022-10-18T06:54:29.157Z,32.10
2022-10-18T06:55:29.146Z,35.60
2022-10-18T06:56:29.126Z,35.70
2022-10-18T06:57:29.107Z,33.20
2022-10-18T06:58:29.110Z,34.70
2022-10-18T06:59:31.236Z,36.10
2022-10-18T07:00:29.054Z,35.30
2022-10-18T07:01:29.083Z,37.10
2022-10-18T07:02:29.228Z,33.90
2022-10-18T07:03:29.007Z,33.20
2022-10-18T07:04:28.992Z,35.70
2022-10-18T07:05:29.038Z,37.70
2022-10-18T07:06:28.957Z,36.20
2022-10-18T07:07:29.353Z,39.90
2022-10-18T07:08:28.925Z,37.30
2022-10-18T07:09:28.909Z,37.50
2022-10-18T07:10:28.894Z,36.60
2022-10-18T07:11:28.883Z,34.40
2022-10-18T07:12:28.868Z,36.60
2022-10-18T07:13:32.301Z,37.50
2022-10-18T07:14:29.217Z,34.00
2022-10-18T07:15:28.861Z,33.00
2022-10-18T07:16:28.788Z,37.70
2022-10-18T07:17:28.903Z,35.30
2022-10-18T07:18:28.759Z,34.50
2022-10-18T07:19:28.745Z,35.30
2022-10-18T07:20:28.726Z,37.30
2022-10-18T07:21:28.713Z,38.00
2022-10-18T07:22:30.367Z,36.60
2022-10-18T07:23:28.684Z,37.90
2022-10-18T07:24:28.697Z,35.30
2022-10-18T07:25:30.531Z,38.10
2022-10-18T07:26:28.626Z,38.10
2022-10-18T07:27:28.620Z,35.60
2022-10-18T07:28:28.664Z,39.60
2022-10-18T07:29:28.574Z,38.20
2022-10-18T07:30:28.612Z,36.30
2022-10-18T07:31:28.554Z,36.80
2022-10-18T07:32:28.532Z,33.30
2022-10-18T07:33:28.511Z,39.70
2022-10-18T07:34:28.496Z,39.20
2022-10-18T07:35:28.483Z,36.30
2022-10-18T07:36:28.455Z,37.30
2022-10-18T07:37:30.158Z,39.60
2022-10-18T07:38:28.424Z,40.60
2022-10-18T07:39:28.418Z,38.70
2022-10-18T07:40:28.396Z,39.50
2022-10-18T07:41:28.373Z,40.40
2022-10-18T07:42:28.357Z,39.20
2022-10-18T07:43:28.342Z,41.30
2022-10-18T07:44:28.321Z,39.30
2022-10-18T07:45:28.412Z,41.10
2022-10-18T07:46:28.310Z,39.70
2022-10-18T07:47:30.127Z,39.90
2022-10-18T07:48:28.258Z,42.00
2022-10-18T07:49:28.239Z,42.30
2022-10-18T07:50:28.225Z,40.50
2022-10-18T07:51:28.209Z,37.80
2022-10-18T07:52:28.190Z,41.90
2022-10-18T07:53:28.180Z,42.00
2022-10-18T07:54:28.167Z,46.50
2022-10-18T07:55:28.141Z,40.80
2022-10-18T07:56:28.119Z,45.70
2022-10-18T07:57:28.103Z,41.10
2022-10-18T07:58:28.088Z,46.70
2022-10-18T07:59:28.071Z,42.40
2022-10-18T08:00:28.053Z,42.20
2022-10-18T08:01:28.074Z,40.90
2022-10-18T08:02:28.044Z,43.50
2022-10-18T08:03:28.004Z,43.80
2022-10-18T08:04:27.991Z,41.70
2022-10-18T08:05:28.044Z,42.20
2022-10-18T08:06:27.953Z,43.00
2022-10-18T08:07:27.933Z,45.50
2022-10-18T08:08:27.925Z,39.70
2022-10-18T08:09:27.906Z,47.00
2022-10-18T08:10:27.884Z,47.10
2022-10-18T08:11:27.872Z,45.70
2022-10-18T08:12:27.865Z,44.20
2022-10-18T08:13:27.836Z,46.20
2022-10-18T08:14:27.820Z,43.40
2022-10-18T08:15:27.812Z,45.20
2022-10-18T08:16:27.862Z,44.30
2022-10-18T08:17:27.766Z,44.00
2022-10-18T08:18:27.773Z,47.80
2022-10-18T08:19:27.739Z,44.70
2022-10-18T08:20:30.864Z,44.40
2022-10-18T08:21:27.707Z,45.60
2022-10-18T08:22:27.692Z,43.80
2022-10-18T08:23:27.667Z,42.40
2022-10-18T08:24:27.674Z,45.80
2022-10-18T08:25:27.726Z,48.80
2022-10-18T08:26:27.619Z,41.60
2022-10-18T08:27:27.605Z,44.30
2022-10-18T08:28:27.685Z,44.70
2022-10-18T08:29:31.541Z,42.90
2022-10-18T08:30:27.556Z,41.40
2022-10-18T08:31:27.534Z,42.30
2022-10-18T08:32:27.518Z,41.10
2022-10-18T08:33:27.500Z,43.70
2022-10-18T08:34:27.568Z,40.20
2022-10-18T08:35:27.473Z,39.50
2022-10-18T08:36:27.458Z,43.60
2022-10-18T08:37:27.436Z,41.60
2022-10-18T08:38:27.426Z,41.30
2022-10-18T08:39:27.402Z,37.90
2022-10-18T08:40:27.392Z,39.90
2022-10-18T08:41:27.373Z,36.50
2022-10-18T08:42:27.357Z,34.60
2022-10-18T08:43:27.447Z,37.90
2022-10-18T08:44:27.338Z,36.60
2022-10-18T08:45:40.814Z,34.30
2022-10-18T08:46:27.292Z,37.80
2022-10-18T08:47:27.276Z,33.60
2022-10-18T08:48:27.267Z,36.20
2022-10-18T08:49:27.239Z,35.50
2022-10-18T08:50:27.248Z,31.90
2022-10-18T08:51:27.229Z,34.50
2022-10-18T08:52:27.260Z,36.50
2022-10-18T08:53:27.183Z,33.30
2022-10-18T08:54:27.164Z,33.60
2022-10-18T08:55:27.147Z,37.60
2022-10-18T08:56:27.132Z,34.30
2022-10-18T08:57:27.113Z,36.70
2022-10-18T08:58:27.114Z,35.00
2022-10-18T08:59:27.093Z,36.50
2022-10-18T09:00:27.082Z,33.50
2022-10-18T09:01:27.056Z,32.80
2022-10-18T09:02:27.035Z,32.20
2022-10-18T09:03:27.106Z,37.60
2022-10-18T09:04:27.006Z,34.00
2022-10-18T09:05:26.988Z,33.40
2022-10-18T09:06:27.001Z,31.40
2022-10-18T09:07:26.954Z,31.10
2022-10-18T09:08:26.944Z,29.10
2022-10-18T09:09:26.926Z,30.90
2022-10-18T09:10:26.920Z,31.60
2022-10-18T09:11:26.897Z,32.10
2022-10-18T09:12:26.880Z,29.90
2022-10-18T09:13:26.867Z,29.60
2022-10-18T09:14:26.849Z,34.50
2022-10-18T09:15:26.839Z,31.90
2022-10-18T09:16:26.822Z,31.80
2022-10-18T09:17:26.805Z,31.00
2022-10-18T09:18:26.790Z,29.60
2022-10-18T09:19:26.773Z,31.00
2022-10-18T09:20:26.755Z,28.90
2022-10-18T09:21:26.743Z,30.70
2022-10-18T09:22:26.747Z,30.20
2022-10-18T09:23:26.706Z,29.90
2022-10-18T09:24:26.700Z,31.30
2022-10-18T09:25:26.681Z,30.70
2022-10-18T09:26:26.663Z,34.40
2022-10-18T09:27:26.645Z,35.90
2022-10-18T09:28:26.665Z,31.60
2022-10-18T09:29:26.761Z,30.70
2022-10-18T09:30:26.600Z,30.90
2022-10-18T09:31:26.593Z,31.70
2022-10-18T09:32:26.579Z,30.50
2022-10-18T09:33:26.553Z,30.50
2022-10-18T09:34:26.535Z,28.00
2022-10-18T09:35:26.526Z,28.20
2022-10-18T09:36:26.513Z,28.30
2022-10-18T09:37:26.498Z,26.10
2022-10-18T09:38:26.506Z,27.30
2022-10-18T09:39:26.471Z,28.30
2022-10-18T09:40:26.457Z,26.60
2022-10-18T09:41:26.441Z,25.70
2022-10-18T09:42:26.426Z,27.50
2022-10-18T09:43:26.414Z,26.70
2022-10-18T09:44:26.397Z,30.30
2022-10-18T09:45:26.387Z,25.30
2022-10-18T09:46:26.374Z,26.30
2022-10-18T09:47:26.454Z,24.40
2022-10-18T09:48:26.344Z,26.50
2022-10-18T09:49:26.329Z,26.50
2022-10-18T09:50:26.322Z,24.40
2022-10-18T09:51:26.303Z,24.30
2022-10-18T09:52:26.290Z,26.00
2022-10-18T09:53:26.274Z,25.70
2022-10-18T09:54:26.295Z,21.90
2022-10-18T09:55:26.251Z,26.00
2022-10-18T09:56:26.232Z,22.50
2022-10-18T09:57:26.217Z,25.10
2022-10-18T09:58:26.206Z,24.70
2022-10-18T09:59:26.191Z,25.60
2022-10-18T10:00:26.174Z,22.10
2022-10-18T10:01:26.162Z,22.70
2022-10-18T10:02:26.219Z,26.70
2022-10-18T10:03:26.133Z,22.20
2022-10-18T10:04:26.120Z,23.80
2022-10-18T10:05:26.106Z,20.70
2022-10-18T10:06:26.092Z,22.10
2022-10-18T10:07:27.684Z,24.10
2022-10-18T10:08:26.065Z,22.30
2022-10-18T10:09:26.050Z,21.80
2022-10-18T10:10:26.056Z,23.30
2022-10-18T10:11:26.027Z,22.40
2022-10-18T10:12:26.012Z,22.40
2022-10-18T10:13:25.994Z,23.70
2022-10-18T10:14:26.102Z,23.50
2022-10-18T10:15:28.227Z,21.90
2022-10-18T10:16:25.946Z,21.60
2022-10-18T10:17:25.934Z,21.70
2022-10-18T10:18:25.921Z,22.40
2022-10-18T10:19:25.904Z,22.20
2022-10-18T10:20:25.895Z,20.20
2022-10-18T10:21:25.877Z,23.70
2022-10-18T10:22:25.864Z,21.90
2022-10-18T10:23:25.851Z,20.10
2022-10-18T10:24:28.873Z,18.60
2022-10-18T10:25:25.829Z,17.70
2022-10-18T10:26:25.871Z,21.10
2022-10-18T10:27:25.797Z,16.00
2022-10-18T10:28:25.866Z,16.60
2022-10-18T10:29:43.647Z,17.80
2022-10-18T10:30:25.767Z,17.50
2022-10-18T10:31:25.752Z,18.90
2022-10-18T10:33:25.732Z,18.00
2022-10-18T10:34:25.725Z,17.90
2022-10-18T10:35:41.267Z,17.10
2022-10-18T10:36:25.695Z,15.90
2022-10-18T10:37:25.686Z,15.50
2022-10-18T10:38:25.706Z,17.60
2022-10-18T10:39:25.663Z,17.50
2022-10-18T10:40:28.588Z,16.30
2022-10-18T10:41:25.702Z,15.30
2022-10-18T10:42:25.698Z,16.70
2022-10-18T10:43:37.542Z,17.90
2022-10-18T10:44:25.717Z,15.50
2022-10-18T10:45:25.607Z,16.70
2022-10-18T10:46:25.598Z,17.00
2022-10-18T10:47:25.587Z,14.90
2022-10-18T10:48:28.745Z,15.80
2022-10-18T10:49:39.570Z,15.20
2022-10-18T10:50:25.656Z,16.50
2022-10-18T10:51:25.545Z,16.20
2022-10-18T10:52:36.649Z,16.20
2022-10-18T10:53:25.524Z,18.10
2022-10-18T10:54:25.518Z,17.30
2022-10-18T10:55:34.762Z,16.60
2022-10-18T10:56:25.488Z,18.00
2022-10-18T10:57:25.482Z,16.30
2022-10-18T10:58:25.493Z,18.90
2022-10-18T10:59:25.455Z,19.60
2022-10-18T11:00:25.451Z,18.50
2022-10-18T11:01:25.430Z,17.70
2022-10-18T11:02:25.431Z,14.70
2022-10-18T11:03:29.808Z,15.70
2022-10-18T11:04:25.397Z,17.00
2022-10-18T11:05:25.397Z,18.50
2022-10-18T11:06:25.378Z,15.00
2022-10-18T11:07:25.368Z,16.90
2022-10-18T11:08:25.355Z,17.70
2022-10-18T11:09:25.348Z,17.20
2022-10-18T11:10:25.336Z,19.60
2022-10-18T11:11:25.321Z,15.40
2022-10-18T11:12:25.329Z,13.90
2022-10-18T11:13:25.300Z,14.40
2022-10-18T11:14:26.628Z,14.80
2022-10-18T11:15:25.280Z,18.30
2022-10-18T11:16:25.268Z,12.60
2022-10-18T11:17:25.252Z,14.90
2022-10-18T11:18:25.243Z,14.70
2022-10-18T11:19:27.791Z,16.10
2022-10-18T11:20:25.221Z,14.90
2022-10-18T11:21:25.211Z,14.50
2022-10-18T11:22:25.201Z,15.40
2022-10-18T11:23:25.188Z,14.00
2022-10-18T11:24:25.180Z,14.00
2022-10-18T11:25:25.181Z,15.50
2022-10-18T11:26:25.158Z,19.80
2022-10-18T11:27:25.147Z,12.90
2022-10-18T11:28:25.186Z,14.10
2022-10-18T11:29:25.131Z,11.00
2022-10-18T11:30:25.138Z,13.70
2022-10-18T11:31:25.108Z,11.30
2022-10-18T11:32:25.093Z,13.00
2022-10-18T11:33:37.284Z,15.80
2022-10-18T11:34:25.080Z,12.10
2022-10-18T11:35:25.066Z,13.20
2022-10-18T11:36:25.060Z,13.60
2022-10-18T11:37:30.331Z,13.00
2022-10-18T11:38:25.039Z,12.20
2022-10-18T11:39:25.029Z,12.70
2022-10-18T11:40:25.018Z,14.20
2022-10-18T11:41:25.006Z,12.70
2022-10-18T11:42:25.005Z,10.70
2022-10-18T11:43:30.265Z,11.60
2022-10-18T11:44:24.981Z,9.30
2022-10-18T11:45:24.987Z,10.30
2022-10-18T11:46:24.981Z,11.60
2022-10-18T11:47:25.001Z,10.10
2022-10-18T11:48:24.942Z,8.50
2022-10-18T11:49:24.931Z,11.00
2022-10-18T11:50:24.921Z,10.00
2022-10-18T11:51:33.994Z,12.20
2022-10-18T11:52:24.906Z,8.50
2022-10-18T11:53:24.930Z,11.80
2022-10-18T11:54:24.883Z,12.10
2022-10-18T11:55:27.681Z,8.80
2022-10-18T11:56:24.862Z,8.30
2022-10-18T11:57:24.854Z,11.70
2022-10-18T11:58:24.847Z,11.10
2022-10-18T11:59:24.840Z,9.30
2022-10-18T12:00:24.905Z,10.20
2022-10-18T12:01:28.329Z,12.10
2022-10-18T12:02:24.917Z,10.10
2022-10-18T12:03:24.798Z,10.00
2022-10-18T12:04:24.788Z,10.70
2022-10-18T12:05:25.105Z,11.90
2022-10-18T12:06:24.769Z,9.00
2022-10-18T12:07:28.937Z,10.80
2022-10-18T12:08:24.750Z,9.80
2022-10-18T12:09:24.740Z,9.30
2022-10-18T12:10:37.752Z,9.20
2022-10-18T12:11:24.725Z,9.50
2022-10-18T12:12:24.716Z,11.80
2022-10-18T12:13:24.703Z,10.80
2022-10-18T12:14:24.706Z,9.40
2022-10-18T12:15:24.685Z,10.80
2022-10-18T12:16:45.428Z,10.20
2022-10-18T12:17:44.027Z,9.00
2022-10-18T12:18:24.688Z,10.80
2022-10-18T12:19:26.789Z,8.20
2022-10-18T12:20:24.640Z,10.30
2022-10-18T12:21:26.039Z,10.20
2022-10-18T12:22:24.624Z,9.80
2022-10-18T12:23:24.615Z,9.60
2022-10-18T12:24:24.606Z,10.40
2022-10-18T12:25:24.602Z,7.70
2022-10-18T12:26:24.588Z,10.00
2022-10-18T12:27:24.589Z,13.70
2022-10-18T12:28:24.690Z,8.20
2022-10-18T12:29:24.562Z,10.20
2022-10-18T12:30:24.549Z,9.20
2022-10-18T12:31:24.542Z,8.60
2022-10-18T12:32:24.535Z,8.70
2022-10-18T12:33:28.330Z,7.30
2022-10-18T12:34:24.539Z,10.30
2022-10-18T12:35:24.504Z,9.50
2022-10-18T12:36:24.496Z,8.20
2022-10-18T12:37:24.489Z,7.10
2022-10-18T12:38:24.478Z,8.30
2022-10-18T12:39:33.366Z,7.80
2022-10-18T12:40:24.462Z,11.20
2022-10-18T12:41:24.453Z,9.60
2022-10-18T12:42:24.449Z,7.10
2022-10-18T12:43:24.438Z,8.90
2022-10-18T12:44:24.423Z,8.90
2022-10-18T12:45:24.419Z,9.80
2022-10-18T12:46:24.482Z,8.50
2022-10-18T12:47:24.406Z,8.60
2022-10-18T12:48:24.385Z,6.90
2022-10-18T12:49:24.377Z,5.50
2022-10-18T12:50:24.387Z,7.60
2022-10-18T12:51:24.360Z,7.50
2022-10-18T12:52:24.357Z,6.40
2022-10-18T12:53:24.339Z,6.90
2022-10-18T12:54:24.329Z,8.40
2022-10-18T12:55:24.330Z,6.30
2022-10-18T12:56:25.257Z,6.50
2022-10-18T12:57:24.306Z,6.60